Maersk Bali — 9V7499 — position and weather

sailwx.info

Track history (hours):
 
Tides and Currents Weather Stations Pressure Air Temp Water Temp Dewpoint Dewpoint Depression Visibility Wind Speed Wind Dir Waves Ship Positions

Maersk Bali

Last reported at 2014-Dec-31 01:21 UTC. Time now 2015-Jan-27 03:23 UTC.
Position N 35°59' W 005°31'.
Warning: this ship's position is 27 days out of date.

Length 223 m; draft 10.7 m.

Type: Cargo ship. MMSI: 563102000.

Date/timePositionNaut miles runAvg speedWind from/ knotsBaromVisibWave heightAir tempDewpointWater temp
2014-Dec-31 01:21N 35°59' W 005°31'810.0
2014-Dec-31 00:33N 36°04' W 005°23'5 0.6
2014-Dec-30 17:05N 36°08' W 005°26'0 0.2
2014-Dec-30 16:32N 36°08' W 005°26'0 0.0
2014-Dec-30 15:32N 36°08' W 005°26'0 0.0
2014-Dec-30 14:29N 36°08' W 005°26'0 0.0
2014-Dec-30 13:32N 36°08' W 005°26'0 0.0
2014-Dec-30 12:26N 36°08' W 005°26'0 0.0
2014-Dec-30 11:32N 36°08' W 005°26'0 0.0
2014-Dec-30 10:23N 36°08' W 005°26'0 0.0
2014-Dec-30 09:29N 36°08' W 005°26'0 0.0
2014-Dec-30 08:26N 36°08' W 005°26'0 0.0
2014-Dec-30 07:29N 36°08' W 005°26'0 0.0
2014-Dec-30 06:20N 36°08' W 005°26'0 0.0
2014-Dec-30 05:32N 36°08' W 005°26'0 0.0
2014-Dec-30 04:29N 36°08' W 005°26'0 0.0
2014-Dec-30 03:32N 36°08' W 005°26'0 0.0
2014-Dec-30 02:29N 36°08' W 005°26'0 0.0
2014-Dec-30 01:32N 36°08' W 005°26'0 0.0
2014-Dec-30 00:29N 36°08' W 005°26'0 0.0
2014-Dec-29 23:29N 36°08' W 005°26'0 0.0
2014-Dec-29 22:29N 36°08' W 005°26'0 0.0
2014-Dec-29 21:29N 36°08' W 005°26'0 0.0
2014-Dec-29 20:32N 36°08' W 005°26'1 0.8
2014-Dec-29 19:33N 36°09' W 005°26'1 1.3
2014-Dec-29 18:32N 36°08' W 005°24'5 5.2
2014-Dec-29 17:33N 36°05' W 005°20'4 4.2
2014-Dec-29 16:33N 36°06' W 005°15'  
2014-Dec-26 06:27N 36°36' E 013°52'1011.5
2014-Dec-26 05:33N 36°33' E 014°04'1111.4
2014-Dec-26 04:34N 36°30' E 014°18'1211.7
2014-Dec-26 03:33N 36°27' E 014°32'30512.0
2014-Dec-25 02:07N 36°20' E 020°51'711.8
2014-Dec-25 01:30N 36°20' E 021°00'6212.0
2014-Dec-24 20:20N 36°20' E 022°17'912.0
2014-Dec-24 19:33N 36°21' E 022°29'2411.8
2014-Dec-24 17:32N 36°25' E 022°58'1211.6
2014-Dec-24 16:32N 36°25' E 023°13'1111.9
2014-Dec-24 15:34N 36°34' E 023°21'1212.0
2014-Dec-24 14:34N 36°44' E 023°29'1212.3
2014-Dec-24 13:34N 36°54' E 023°38'1212.5
2014-Dec-24 12:34N 37°03' E 023°48'1211.6
2014-Dec-24 11:33N 37°13' E 023°56'1212.1
2014-Dec-24 10:34N 37°24' E 024°03'1211.9
2014-Dec-24 09:33N 37°35' E 024°09'1311.7
2014-Dec-24 08:28N 37°45' E 024°18'1111.8
2014-Dec-24 07:34N 37°52' E 024°29'1411.5
2014-Dec-24 06:20N 38°03' E 024°41'911.7
2014-Dec-24 05:33N 38°10' E 024°47'2811.9
2014-Dec-24 03:12N 38°31' E 025°10'711.3
2014-Dec-24 02:33N 38°36' E 025°17'1111.5
2014-Dec-24 01:33N 38°44' E 025°28'1211.5
2014-Dec-24 00:32N 38°47' E 025°42'40 1.5
2014-Dec-22 22:09N 39°26' E 025°43'2911.2
2014-Dec-22 19:31N 39°55' E 025°52'4912.0
2014-Dec-22 15:24N 40°25' E 026°43'  
Track history (hours):
 
Tides and Currents Weather Stations Pressure Air Temp Water Temp Dewpoint Dewpoint Depression Visibility Wind Speed Wind Dir Waves Ship Positions

Maersk Bali

Last reported at 2014-Dec-31 01:21 UTC. Time now 2015-Jan-27 03:23 UTC.
Position N 35°59' W 005°31'.
Warning: this ship's position is 27 days out of date.

Length 223 m; draft 10.7 m.

Type: Cargo ship. MMSI: 563102000.

Date/timePositionNaut miles runAvg speedWind from/ knotsBaromVisibWave heightAir tempDewpointWater temp
2014-Dec-31 01:21N 35°59' W 005°31'810.0
2014-Dec-31 00:33N 36°04' W 005°23'5 0.6
2014-Dec-30 17:05N 36°08' W 005°26'0 0.2
2014-Dec-30 16:32N 36°08' W 005°26'0 0.0
2014-Dec-30 15:32N 36°08' W 005°26'0 0.0
2014-Dec-30 14:29N 36°08' W 005°26'0 0.0
2014-Dec-30 13:32N 36°08' W 005°26'0 0.0
2014-Dec-30 12:26N 36°08' W 005°26'0 0.0
2014-Dec-30 11:32N 36°08' W 005°26'0 0.0
2014-Dec-30 10:23N 36°08' W 005°26'0 0.0
2014-Dec-30 09:29N 36°08' W 005°26'0 0.0
2014-Dec-30 08:26N 36°08' W 005°26'0 0.0
2014-Dec-30 07:29N 36°08' W 005°26'0 0.0
2014-Dec-30 06:20N 36°08' W 005°26'0 0.0
2014-Dec-30 05:32N 36°08' W 005°26'0 0.0
2014-Dec-30 04:29N 36°08' W 005°26'0 0.0
2014-Dec-30 03:32N 36°08' W 005°26'0 0.0
2014-Dec-30 02:29N 36°08' W 005°26'0 0.0
2014-Dec-30 01:32N 36°08' W 005°26'0 0.0
2014-Dec-30 00:29N 36°08' W 005°26'0 0.0
2014-Dec-29 23:29N 36°08' W 005°26'0 0.0
2014-Dec-29 22:29N 36°08' W 005°26'0 0.0
2014-Dec-29 21:29N 36°08' W 005°26'0 0.0
2014-Dec-29 20:32N 36°08' W 005°26'1 0.8
2014-Dec-29 19:33N 36°09' W 005°26'1 1.3
2014-Dec-29 18:32N 36°08' W 005°24'5 5.2
2014-Dec-29 17:33N 36°05' W 005°20'4 4.2
2014-Dec-29 16:33N 36°06' W 005°15'  
2014-Dec-26 06:27N 36°36' E 013°52'1011.5
2014-Dec-26 05:33N 36°33' E 014°04'1111.4
2014-Dec-26 04:34N 36°30' E 014°18'1211.7
2014-Dec-26 03:33N 36°27' E 014°32'30512.0
2014-Dec-25 02:07N 36°20' E 020°51'711.8
2014-Dec-25 01:30N 36°20' E 021°00'6212.0
2014-Dec-24 20:20N 36°20' E 022°17'912.0
2014-Dec-24 19:33N 36°21' E 022°29'2411.8
2014-Dec-24 17:32N 36°25' E 022°58'1211.6
2014-Dec-24 16:32N 36°25' E 023°13'1111.9
2014-Dec-24 15:34N 36°34' E 023°21'1212.0
2014-Dec-24 14:34N 36°44' E 023°29'1212.3
2014-Dec-24 13:34N 36°54' E 023°38'1212.5
2014-Dec-24 12:34N 37°03' E 023°48'1211.6
2014-Dec-24 11:33N 37°13' E 023°56'1212.1
2014-Dec-24 10:34N 37°24' E 024°03'1211.9
2014-Dec-24 09:33N 37°35' E 024°09'1311.7
2014-Dec-24 08:28N 37°45' E 024°18'1111.8
2014-Dec-24 07:34N 37°52' E 024°29'1411.5
2014-Dec-24 06:20N 38°03' E 024°41'911.7
2014-Dec-24 05:33N 38°10' E 024°47'2811.9
2014-Dec-24 03:12N 38°31' E 025°10'711.3
2014-Dec-24 02:33N 38°36' E 025°17'1111.5
2014-Dec-24 01:33N 38°44' E 025°28'1211.5
2014-Dec-24 00:32N 38°47' E 025°42'40 1.5
2014-Dec-22 22:09N 39°26' E 025°43'2911.2
2014-Dec-22 19:31N 39°55' E 025°52'4912.0
2014-Dec-22 15:24N 40°25' E 026°43'  

Dump ship's entire track history